createdAt,value
2019-04-20T00:02:18.889Z,49.75
2019-04-20T00:04:49.475Z,49.75
2019-04-20T00:07:24.582Z,50.23
2019-04-20T00:10:06.266Z,50.15
2019-04-20T00:12:44.201Z,50.37
2019-04-20T00:15:07.216Z,50.41
2019-04-20T00:17:47.695Z,50.28
2019-04-20T00:20:20.722Z,50.52
2019-04-20T00:22:53.264Z,50.56
2019-04-20T00:25:41.705Z,50.76
2019-04-20T00:28:25.430Z,50.74
2019-04-20T00:31:04.155Z,50.97
2019-04-20T00:33:27.013Z,51.12
2019-04-20T00:35:48.566Z,51.81
2019-04-20T00:38:22.742Z,51.29
2019-04-20T00:41:00.060Z,51.67
2019-04-20T00:43:32.904Z,52.05
2019-04-20T00:46:08.259Z,52.16
2019-04-20T00:48:48.676Z,52.26
2019-04-20T00:51:32.678Z,52.55
2019-04-20T00:53:51.223Z,52.91
2019-04-20T00:56:22.370Z,53.18
2019-04-20T00:59:09.238Z,53.01
2019-04-20T01:01:50.169Z,53.29
2019-04-20T01:04:20.241Z,53.08
2019-04-20T01:07:06.066Z,53.25
2019-04-20T01:09:47.766Z,53.37
2019-04-20T01:12:26.034Z,53.45
2019-04-20T01:15:01.074Z,53.97
2019-04-20T01:17:31.897Z,53.68
2019-04-20T01:20:08.159Z,54.29
2019-04-20T01:22:48.191Z,54.31
2019-04-20T01:25:24.249Z,54.87
2019-04-20T01:28:09.080Z,54.99
2019-04-20T01:30:34.016Z,55.02
2019-04-20T01:33:16.364Z,55.06
2019-04-20T01:35:51.606Z,55.31
2019-04-20T01:38:29.606Z,55.37
2019-04-20T01:40:46.327Z,55.76
2019-04-20T01:43:20.482Z,55.52
2019-04-20T01:46:01.401Z,55.69
2019-04-20T01:48:33.661Z,55.87
2019-04-20T01:51:07.274Z,56.31
2019-04-20T01:54:03.911Z,56.75
2019-04-20T01:56:37.403Z,56.98
2019-04-20T01:59:24.176Z,56.89
2019-04-20T02:01:46.831Z,57.23
2019-04-20T02:04:33.939Z,57.17
2019-04-20T02:07:03.834Z,57.14
2019-04-20T02:09:43.279Z,57.30
2019-04-20T02:12:15.446Z,57.07
2019-04-20T02:14:51.799Z,57.05
2019-04-20T02:17:28.372Z,57.19
2019-04-20T02:20:10.480Z,57.15
2019-04-20T02:22:47.668Z,56.99
2019-04-20T02:25:03.824Z,56.93
2019-04-20T02:27:43.263Z,57.00
2019-04-20T02:30:51.743Z,56.63
2019-04-20T02:33:32.250Z,56.33
2019-04-20T02:36:04.836Z,56.25
2019-04-20T02:38:48.905Z,56.01
2019-04-20T02:41:09.875Z,55.84
2019-04-20T02:46:14.830Z,55.70
2019-04-20T02:49:05.439Z,55.61
2019-04-20T02:51:23.555Z,55.55
2019-04-20T02:54:11.455Z,55.41
2019-04-20T02:56:45.262Z,55.97
2019-04-20T02:59:32.944Z,56.22
2019-04-20T03:01:36.046Z,56.15
2019-04-20T03:03:54.597Z,56.08
2019-04-20T03:06:36.569Z,56.06
2019-04-20T03:09:22.482Z,56.12
2019-04-20T03:14:24.018Z,56.04
2019-04-20T03:17:08.736Z,56.39
2019-04-20T03:19:29.984Z,56.26
2019-04-20T03:22:19.194Z,56.76
2019-04-20T03:24:50.040Z,57.20
2019-04-20T03:27:20.910Z,56.92
2019-04-20T03:30:40.258Z,57.04
2019-04-20T03:35:29.880Z,57.32
2019-04-20T03:38:00.170Z,56.91
2019-04-20T03:40:24.452Z,57.32
2019-04-20T03:42:46.535Z,57.32
2019-04-20T03:45:22.663Z,57.15
2019-04-20T03:48:06.147Z,56.80
2019-04-20T03:50:49.202Z,56.39
2019-04-20T03:53:22.976Z,56.26
2019-04-20T03:55:56.414Z,56.36
2019-04-20T03:58:37.850Z,55.91
2019-04-20T04:01:43.091Z,55.83
2019-04-20T04:04:05.185Z,55.47
2019-04-20T04:06:29.561Z,55.24
2019-04-20T04:09:10.114Z,54.97
2019-04-20T04:11:48.952Z,54.83
2019-04-20T04:14:07.107Z,54.65
2019-04-20T04:16:45.775Z,54.76
2019-04-20T04:19:21.521Z,54.76
2019-04-20T04:22:04.177Z,54.71
2019-04-20T04:24:31.603Z,54.67
2019-04-20T04:27:09.270Z,54.58
2019-04-20T04:29:52.379Z,54.50
2019-04-20T04:32:46.931Z,54.33
2019-04-20T04:35:09.220Z,54.35
2019-04-20T04:37:45.910Z,54.24
2019-04-20T04:40:31.702Z,54.15
2019-04-20T04:42:58.428Z,54.14
2019-04-20T04:45:14.510Z,54.06
2019-04-20T04:47:47.333Z,54.28
2019-04-20T04:50:24.890Z,54.60
2019-04-20T04:53:04.502Z,54.53
2019-04-20T04:55:42.945Z,54.57
2019-04-20T04:58:04.492Z,54.39
2019-04-20T05:00:38.840Z,54.35
2019-04-20T05:03:28.495Z,54.73
2019-04-20T05:06:06.562Z,54.63
2019-04-20T05:08:31.720Z,54.36
2019-04-20T05:11:01.005Z,55.07
2019-04-20T05:13:43.924Z,55.09
2019-04-20T05:16:27.628Z,54.94
2019-04-20T05:19:11.915Z,56.01
2019-04-20T05:22:01.314Z,56.08
2019-04-20T05:24:33.808Z,55.05
2019-04-20T05:27:17.702Z,52.23
2019-04-20T05:29:32.455Z,52.44
2019-04-20T05:32:07.898Z,52.25
2019-04-20T05:34:58.165Z,52.08
2019-04-20T05:37:57.358Z,51.16
2019-04-20T05:40:13.979Z,51.43
2019-04-20T05:42:44.189Z,51.62
2019-04-20T05:45:16.676Z,50.55
2019-04-20T05:47:48.546Z,50.52
2019-04-20T05:50:27.625Z,50.49
2019-04-20T05:53:07.253Z,50.44
2019-04-20T05:55:40.031Z,50.57
2019-04-20T05:58:17.931Z,51.02
2019-04-20T06:00:56.803Z,50.37
2019-04-20T06:03:23.346Z,50.42
2019-04-20T06:06:05.125Z,50.65
2019-04-20T06:11:09.339Z,49.93
2019-04-20T06:13:34.792Z,49.92
2019-04-20T06:16:18.677Z,50.05
2019-04-20T06:18:58.220Z,48.95
2019-04-20T06:21:52.888Z,48.82
2019-04-20T06:24:36.310Z,48.39
2019-04-20T06:27:16.109Z,48.08
2019-04-20T06:29:38.067Z,48.07
2019-04-20T06:32:17.394Z,47.30
2019-04-20T06:34:50.094Z,47.32
2019-04-20T06:37:21.318Z,46.60
2019-04-20T06:39:59.083Z,45.70
2019-04-20T06:42:23.481Z,46.42
2019-04-20T06:45:07.064Z,44.71
2019-04-20T06:47:39.314Z,44.35
2019-04-20T06:50:12.858Z,44.53
2019-04-20T06:53:01.916Z,44.39
2019-04-20T06:55:42.973Z,43.46
2019-04-20T06:58:28.028Z,42.91
2019-04-20T07:00:53.441Z,42.23
2019-04-20T07:06:19.483Z,41.53
2019-04-20T07:11:04.354Z,39.79
2019-04-20T07:13:29.778Z,40.37
2019-04-20T07:16:21.635Z,39.02
2019-04-20T07:19:07.644Z,39.70
2019-04-20T07:22:01.881Z,38.21
2019-04-20T07:24:38.467Z,37.83
2019-04-20T07:27:03.960Z,37.59
2019-04-20T07:29:41.114Z,37.81
2019-04-20T07:32:07.621Z,36.55
2019-04-20T07:34:51.327Z,35.89
2019-04-20T07:37:46.637Z,36.47
2019-04-20T07:40:02.676Z,35.11
2019-04-20T07:42:34.833Z,35.04
2019-04-20T07:45:16.433Z,34.67
2019-04-20T07:47:46.591Z,33.87
2019-04-20T07:50:12.910Z,32.04
2019-04-20T07:52:42.877Z,29.98
2019-04-20T07:57:55.026Z,29.70
2019-04-20T08:00:48.440Z,30.65
2019-04-20T08:03:24.693Z,28.83
2019-04-20T08:05:46.776Z,30.23
2019-04-20T08:08:37.699Z,31.15
2019-04-20T08:11:00.754Z,29.84
2019-04-20T08:13:49.030Z,29.67
2019-04-20T08:16:25.834Z,29.34
2019-04-20T08:18:55.761Z,29.40
2019-04-20T08:21:29.395Z,29.30
2019-04-20T08:24:02.604Z,28.44
2019-04-20T08:26:23.102Z,28.25
2019-04-20T08:29:01.550Z,29.19
2019-04-20T08:31:47.373Z,28.27
2019-04-20T08:37:05.948Z,28.17
2019-04-20T08:39:55.541Z,27.92
2019-04-20T08:42:16.214Z,29.87
2019-04-20T08:45:03.608Z,27.70
2019-04-20T08:47:37.938Z,28.42
2019-04-20T08:55:29.906Z,27.70
2019-04-20T08:57:45.132Z,26.40
2019-04-20T09:00:28.867Z,25.70
2019-04-20T09:03:07.892Z,26.01
2019-04-20T09:05:47.645Z,23.98
2019-04-20T09:08:16.127Z,24.91
2019-04-20T09:10:59.815Z,25.84
2019-04-20T09:13:40.781Z,26.58
2019-04-20T09:16:13.128Z,26.06
2019-04-20T09:18:57.898Z,24.54
2019-04-20T09:21:51.027Z,23.54
2019-04-20T09:24:52.797Z,23.88
2019-04-20T09:27:21.876Z,23.08
2019-04-20T09:33:14.530Z,23.01
2019-04-20T09:35:47.364Z,22.53
2019-04-20T09:38:29.993Z,22.31
2019-04-20T09:41:09.115Z,22.89
2019-04-20T09:43:30.412Z,22.49
2019-04-20T09:46:06.677Z,21.84
2019-04-20T09:48:42.647Z,23.93
2019-04-20T09:51:30.762Z,22.94
2019-04-20T09:54:12.513Z,22.52
2019-04-20T09:57:09.179Z,20.81
2019-04-20T09:59:57.465Z,21.91
2019-04-20T10:02:31.023Z,21.49
2019-04-20T10:05:17.759Z,18.84
2019-04-20T10:08:06.749Z,20.30
2019-04-20T10:10:41.718Z,20.50
2019-04-20T10:13:15.392Z,20.75
2019-04-20T10:15:59.692Z,20.48
2019-04-20T10:18:45.475Z,21.16
2019-04-20T10:21:23.713Z,20.02
2019-04-20T10:27:08.275Z,22.52
2019-04-20T10:29:47.581Z,22.37
2019-04-20T10:32:37.703Z,21.28
2019-04-20T10:35:23.338Z,20.08
2019-04-20T10:38:11.464Z,21.71
2019-04-20T10:41:04.987Z,21.99
2019-04-20T10:43:49.018Z,20.99
2019-04-20T10:46:31.155Z,20.98
2019-04-20T10:49:13.645Z,22.10
2019-04-20T10:51:51.361Z,20.98
2019-04-20T10:54:24.729Z,20.03
2019-04-20T10:56:57.792Z,19.95
2019-04-20T10:59:31.755Z,20.37
2019-04-20T11:02:05.801Z,20.93
2019-04-20T11:04:38.815Z,19.28
2019-04-20T11:07:12.516Z,18.33
2019-04-20T11:09:46.979Z,18.73
2019-04-20T11:12:20.134Z,19.57
2019-04-20T11:14:54.209Z,20.22
2019-04-20T11:17:29.787Z,18.76
2019-04-20T11:20:01.550Z,19.34
2019-04-20T11:22:34.738Z,18.92
2019-04-20T11:25:08.379Z,19.86
2019-04-20T11:27:40.906Z,19.25
2019-04-20T11:30:16.127Z,18.91
2019-04-20T11:32:49.669Z,18.39
2019-04-20T11:35:27.786Z,18.88
2019-04-20T11:37:57.461Z,18.72
2019-04-20T11:40:30.824Z,18.25
2019-04-20T11:43:03.943Z,18.21
2019-04-20T11:45:36.813Z,16.59
2019-04-20T11:48:09.635Z,17.56
2019-04-20T11:50:43.378Z,17.31
2019-04-20T11:53:17.471Z,17.30
2019-04-20T11:55:52.126Z,16.86
2019-04-20T11:58:26.100Z,16.31
2019-04-20T12:01:08.532Z,16.67
2019-04-20T12:03:47.825Z,16.32
2019-04-20T12:06:10.492Z,14.63
2019-04-20T12:08:44.323Z,17.29
2019-04-20T12:11:26.496Z,15.67
2019-04-20T12:13:54.519Z,15.14
2019-04-20T12:16:27.819Z,14.52
2019-04-20T12:19:02.316Z,15.26
2019-04-20T12:21:35.008Z,14.03
2019-04-20T12:24:07.707Z,14.78
2019-04-20T12:26:40.612Z,15.10
2019-04-20T12:29:16.211Z,14.61
2019-04-20T12:31:51.101Z,13.30
2019-04-20T12:34:24.555Z,14.18
2019-04-20T12:36:58.412Z,14.17
2019-04-20T12:39:31.354Z,13.73
2019-04-20T12:42:08.128Z,13.61
2019-04-20T12:44:41.818Z,13.23
2019-04-20T12:47:14.595Z,13.17
2019-04-20T12:49:47.586Z,12.50
2019-04-20T12:52:20.726Z,13.60
2019-04-20T12:54:54.487Z,13.95
2019-04-20T12:57:28.874Z,12.64
2019-04-20T13:00:03.566Z,13.13
2019-04-20T13:02:37.551Z,13.05
2019-04-20T13:05:11.546Z,12.15
2019-04-20T13:07:49.314Z,11.83
2019-04-20T13:10:21.433Z,12.75
2019-04-20T13:13:04.950Z,11.99
2019-04-20T13:15:44.593Z,12.67
2019-04-20T13:18:23.329Z,12.50
2019-04-20T13:20:58.166Z,11.77
2019-04-20T13:23:31.076Z,12.69
2019-04-20T13:26:05.862Z,12.76
2019-04-20T13:28:39.062Z,12.19
2019-04-20T13:31:11.933Z,12.52
2019-04-20T13:33:45.322Z,11.52
2019-04-20T13:36:18.215Z,11.18
2019-04-20T13:38:51.934Z,11.40
2019-04-20T13:41:25.035Z,11.53
2019-04-20T13:44:00.104Z,12.03
2019-04-20T13:46:33.339Z,11.86
2019-04-20T13:49:07.092Z,12.81
2019-04-20T13:51:40.961Z,12.44
2019-04-20T13:54:17.992Z,11.77
2019-04-20T13:56:50.445Z,12.59
2019-04-20T13:59:35.167Z,12.71
2019-04-20T14:02:12.967Z,12.76
2019-04-20T14:04:56.992Z,11.85
2019-04-20T14:07:31.400Z,12.38
2019-04-20T14:10:05.868Z,12.81
2019-04-20T14:12:50.399Z,11.77
2019-04-20T14:15:13.647Z,11.87
2019-04-20T14:17:46.940Z,12.53
2019-04-20T14:20:22.153Z,11.98
2019-04-20T14:22:55.197Z,12.50
2019-04-20T14:25:29.005Z,12.93
2019-04-20T14:28:02.832Z,12.93
2019-04-20T14:30:38.013Z,14.05
2019-04-20T14:33:10.702Z,13.41
2019-04-20T14:35:43.373Z,13.54
2019-04-20T14:38:16.058Z,14.25
2019-04-20T14:40:50.414Z,14.12
2019-04-20T14:43:24.918Z,14.05
2019-04-20T14:45:58.806Z,14.00
2019-04-20T14:48:34.467Z,14.33
2019-04-20T14:51:08.048Z,14.03
2019-04-20T14:53:41.470Z,14.23
2019-04-20T14:56:15.366Z,13.65
2019-04-20T14:58:51.360Z,15.33
2019-04-20T15:01:28.203Z,15.42
2019-04-20T15:04:06.762Z,15.29
2019-04-20T15:06:38.555Z,14.60
2019-04-20T15:09:11.046Z,14.89
2019-04-20T15:11:45.143Z,14.30
2019-04-20T15:14:18.706Z,14.64
2019-04-20T15:16:52.856Z,14.01
2019-04-20T15:19:33.640Z,14.77
2019-04-20T15:22:09.375Z,14.70
2019-04-20T15:24:42.377Z,14.85
2019-04-20T15:27:16.251Z,14.71
2019-04-20T15:29:50.486Z,14.91
2019-04-20T15:32:23.077Z,14.14
2019-04-20T15:34:57.087Z,14.87
2019-04-20T15:37:30.948Z,15.23
2019-04-20T15:40:06.446Z,14.99
2019-04-20T15:42:53.735Z,15.64
2019-04-20T15:45:15.685Z,16.42
2019-04-20T15:47:49.973Z,16.26
2019-04-20T15:50:23.604Z,16.44
2019-04-20T15:53:00.049Z,16.72
2019-04-20T15:55:37.553Z,16.62
2019-04-20T15:58:08.433Z,17.42
2019-04-20T16:00:42.540Z,17.31
2019-04-20T16:03:23.330Z,17.79
2019-04-20T16:06:01.322Z,18.16
2019-04-20T16:08:36.721Z,18.46
2019-04-20T16:11:11.225Z,18.74
2019-04-20T16:13:49.459Z,18.38
2019-04-20T16:16:19.638Z,18.48
2019-04-20T16:18:52.864Z,18.55
2019-04-20T16:21:28.467Z,19.70
2019-04-20T16:24:04.617Z,19.49
2019-04-20T16:26:49.469Z,19.43
2019-04-20T16:29:17.818Z,20.23
2019-04-20T16:31:52.554Z,20.77
2019-04-20T16:34:25.431Z,20.85
2019-04-20T16:37:02.433Z,21.47
2019-04-20T16:39:36.840Z,21.90
2019-04-20T16:42:12.022Z,21.85
2019-04-20T16:44:47.216Z,22.47
2019-04-20T16:47:20.122Z,22.90
2019-04-20T16:49:55.056Z,23.88
2019-04-20T16:52:30.654Z,23.75
2019-04-20T16:55:04.141Z,23.62
2019-04-20T16:57:37.682Z,24.35
2019-04-20T17:00:11.502Z,24.81
2019-04-20T17:02:46.114Z,24.23
2019-04-20T17:05:19.500Z,24.46
2019-04-20T17:08:00.893Z,24.57
2019-04-20T17:14:27.565Z,25.17
2019-04-20T17:17:49.540Z,24.66
2019-04-20T17:20:34.720Z,24.72
2019-04-20T17:23:17.164Z,24.92
2019-04-20T17:26:03.935Z,24.27
2019-04-20T17:32:33.577Z,24.96
2019-04-20T17:35:55.193Z,24.43
2019-04-20T17:45:07.711Z,24.83
2019-04-20T17:51:22.439Z,25.94
2019-04-20T17:57:19.428Z,26.58
2019-04-20T18:04:05.464Z,27.37
2019-04-20T18:06:43.689Z,28.78
2019-04-20T18:09:34.521Z,28.78
2019-04-20T18:15:06.183Z,29.15
2019-04-20T18:17:58.799Z,29.63
2019-04-20T18:20:38.977Z,32.45
2019-04-20T18:23:24.826Z,31.72
2019-04-20T18:26:11.044Z,30.53
2019-04-20T18:28:56.152Z,31.16
2019-04-20T18:31:13.497Z,31.37
2019-04-20T18:33:51.653Z,32.36
2019-04-20T18:36:38.288Z,32.35
2019-04-20T18:39:38.025Z,32.46
2019-04-20T18:42:27.206Z,32.70
2019-04-20T18:48:15.870Z,35.55
2019-04-20T18:50:35.394Z,34.02
2019-04-20T18:53:05.592Z,34.91
2019-04-20T18:55:45.918Z,34.00
2019-04-20T18:58:15.260Z,36.14
2019-04-20T19:00:51.861Z,37.35
2019-04-20T19:03:29.944Z,35.33
2019-04-20T19:06:02.038Z,36.17
2019-04-20T19:08:40.422Z,35.86
2019-04-20T19:11:16.505Z,35.68
2019-04-20T19:13:51.233Z,36.27
2019-04-20T19:16:46.759Z,36.11
2019-04-20T19:19:27.030Z,36.58
2019-04-20T19:21:54.166Z,36.89
2019-04-20T19:24:29.713Z,38.12
2019-04-20T19:27:08.062Z,37.95
2019-04-20T19:29:44.829Z,38.59
2019-04-20T19:32:34.144Z,39.23
2019-04-20T19:34:57.490Z,42.28
2019-04-20T19:37:28.502Z,44.05
2019-04-20T19:40:10.794Z,43.50
2019-04-20T19:42:45.197Z,44.30
2019-04-20T19:45:37.498Z,44.91
2019-04-20T19:48:04.706Z,44.97
2019-04-20T19:50:44.182Z,45.14
2019-04-20T19:53:22.724Z,45.36
2019-04-20T19:55:48.037Z,45.74
2019-04-20T19:58:25.254Z,45.72
2019-04-20T20:00:59.577Z,44.90
2019-04-20T20:03:39.590Z,45.33
2019-04-20T20:06:22.512Z,46.11
2019-04-20T20:08:56.001Z,45.27
2019-04-20T20:11:29.894Z,45.64
2019-04-20T20:13:58.464Z,45.72
2019-04-20T20:16:50.463Z,46.21
2019-04-20T20:19:12.097Z,44.59
2019-04-20T20:21:55.502Z,45.30
2019-04-20T20:24:17.454Z,45.81
2019-04-20T20:26:56.704Z,45.93
2019-04-20T20:29:34.255Z,47.14
2019-04-20T20:32:10.365Z,46.32
2019-04-20T20:34:40.463Z,46.81
2019-04-20T20:37:23.733Z,46.73
2019-04-20T20:39:58.465Z,47.07
2019-04-20T20:42:32.942Z,47.66
2019-04-20T20:45:14.305Z,47.84
2019-04-20T20:47:55.076Z,47.81
2019-04-20T20:50:33.765Z,47.83
2019-04-20T20:52:58.689Z,48.12
2019-04-20T20:55:32.201Z,47.99
2019-04-20T20:58:01.941Z,48.03
2019-04-20T21:00:41.158Z,47.98
2019-04-20T21:03:07.438Z,47.66
2019-04-20T21:05:38.233Z,47.23
2019-04-20T21:08:13.775Z,47.94
2019-04-20T21:10:48.089Z,47.59
2019-04-20T21:13:21.471Z,48.41
2019-04-20T21:16:02.841Z,47.99
2019-04-20T21:18:49.003Z,48.67
2019-04-20T21:21:17.682Z,49.57
2019-04-20T21:23:48.125Z,48.53
2019-04-20T21:26:21.768Z,48.45
2019-04-20T21:28:48.017Z,49.24
2019-04-20T21:31:24.278Z,49.21
2019-04-20T21:33:57.211Z,49.57
2019-04-20T21:36:31.769Z,50.07
2019-04-20T21:39:08.681Z,49.89
2019-04-20T21:41:50.928Z,49.25
2019-04-20T21:44:25.057Z,50.25
2019-04-20T21:46:54.573Z,50.72
2019-04-20T21:49:39.944Z,49.95
2019-04-20T21:52:06.097Z,50.17
2019-04-20T21:54:36.036Z,50.75
2019-04-20T21:57:11.488Z,50.96
2019-04-20T21:59:50.522Z,50.85
2019-04-20T22:02:28.190Z,51.27
2019-04-20T22:04:57.638Z,51.02
2019-04-20T22:07:30.654Z,51.07
2019-04-20T22:10:04.978Z,50.85
2019-04-20T22:12:45.600Z,51.36
2019-04-20T22:15:22.465Z,51.16
2019-04-20T22:17:48.681Z,51.34
2019-04-20T22:20:32.520Z,51.76
2019-04-20T22:23:07.469Z,51.81
2019-04-20T22:25:50.467Z,51.14
2019-04-20T22:28:05.743Z,51.76
2019-04-20T22:30:39.915Z,51.92
2019-04-20T22:33:28.565Z,51.66
2019-04-20T22:36:02.175Z,51.17
2019-04-20T22:38:37.582Z,51.45
2019-04-20T22:41:13.880Z,51.13
2019-04-20T22:43:44.184Z,51.65
2019-04-20T22:46:23.708Z,51.36
2019-04-20T22:49:08.120Z,51.50
2019-04-20T22:51:39.943Z,51.59
2019-04-20T22:54:16.978Z,51.35
2019-04-20T22:56:50.914Z,51.50
2019-04-20T22:59:19.114Z,51.83
2019-04-20T23:01:56.179Z,51.94
2019-04-20T23:04:26.564Z,52.03
2019-04-20T23:07:00.928Z,51.80
2019-04-20T23:09:43.888Z,52.17
2019-04-20T23:12:13.406Z,52.03
2019-04-20T23:14:44.603Z,52.50
2019-04-20T23:17:24.387Z,52.34
2019-04-20T23:19:56.165Z,52.18
2019-04-20T23:22:35.979Z,51.83
2019-04-20T23:25:03.119Z,52.41
2019-04-20T23:27:38.720Z,52.47
2019-04-20T23:30:23.724Z,53.10
2019-04-20T23:32:47.593Z,53.43
2019-04-20T23:35:23.461Z,53.46
2019-04-20T23:38:06.820Z,53.31
2019-04-20T23:40:31.955Z,54.00
2019-04-20T23:43:28.170Z,54.00
2019-04-20T23:46:19.401Z,54.45
2019-04-20T23:48:52.098Z,54.33
2019-04-20T23:51:49.599Z,54.61
2019-04-20T23:54:10.208Z,54.85
2019-04-20T23:56:35.379Z,55.32
2019-04-20T23:59:08.970Z,55.58
